Time;durP1;ratioP1;P1;durP2;ratioP2;P2;SDS_P1;SDS_P2;PMS_P1;PMS_P2;Temp;Humidity;BMP_temperature;BMP_pressure;BME280_temperature;BME280_humidity;BME280_pressure;Samples;Min_cycle;Max_cycle;Signal;HPM_P1;HPM_P2
2021/08/12 00:00:01;;;;;;;;;21.75;21.75;;;;;31.92;41.72;101018.69;144161;581;132016;-70
2021/08/12 00:02:35;;;;;;;;;23.50;23.25;;;;;31.64;42.01;101014.53;144158;552;132019;-70
2021/08/12 00:05:11;;;;;;;;;21.50;21.50;;;;;31.70;41.85;101007.59;144173;571;132010;-70
2021/08/12 00:07:45;;;;;;;;;24.50;23.25;;;;;31.53;42.22;101015.72;144158;586;132008;-70
2021/08/12 00:10:19;;;;;;;;;25.50;24.25;;;;;31.36;42.27;101022.22;144164;593;132008;-70
2021/08/12 00:12:53;;;;;;;;;26.00;25.00;;;;;31.42;41.79;101024.25;144148;579;131912;-70
2021/08/12 00:15:27;;;;;;;;;24.00;22.25;;;;;31.36;41.92;101011.38;144157;674;132010;-70
2021/08/12 00:18:01;;;;;;;;;22.25;22.25;;;;;31.35;42.18;101017.81;144166;628;131020;-70
2021/08/12 00:20:35;;;;;;;;;20.50;20.50;;;;;31.22;42.09;101018.34;144158;624;132010;-70
2021/08/12 00:23:10;;;;;;;;;25.50;23.25;;;;;31.23;41.86;101022.75;144163;579;131021;-70
2021/08/12 00:25:45;;;;;;;;;29.00;24.00;;;;;31.28;42.18;101016.81;144163;600;131016;-71
2021/08/12 00:28:19;;;;;;;;;30.50;24.50;;;;;30.97;42.57;101006.63;144167;600;132008;-71
2021/08/12 00:30:53;;;;;;;;;24.00;21.00;;;;;31.01;42.42;101000.69;144172;620;131019;-70
2021/08/12 00:33:27;;;;;;;;;23.00;23.00;;;;;30.69;43.73;101012.41;144157;622;132010;-71
2021/08/12 00:36:01;;;;;;;;;26.00;24.75;;;;;30.24;45.27;101013.63;144158;599;132012;-70
2021/08/12 00:38:36;;;;;;;;;28.25;25.00;;;;;30.33;45.23;101012.63;144140;580;132008;-70
2021/08/12 00:41:10;;;;;;;;;22.50;20.00;;;;;30.51;44.61;101009.81;144159;618;132010;-70
2021/08/12 00:43:44;;;;;;;;;24.50;24.50;;;;;30.60;44.79;101010.69;144158;571;132009;-70
2021/08/12 00:46:18;;;;;;;;;29.00;25.50;;;;;30.65;44.52;101011.03;144163;603;131017;-69
2021/08/12 00:48:52;;;;;;;;;22.25;22.25;;;;;30.49;44.95;101015.41;144161;718;132016;-69
2021/08/12 00:51:26;;;;;;;;;27.25;25.50;;;;;30.86;43.97;101008.66;144154;694;132012;-70
2021/08/12 00:54:01;;;;;;;;;30.75;26.75;;;;;30.97;43.62;101014.78;144154;595;132010;-68
2021/08/12 00:56:35;;;;;;;;;24.75;24.50;;;;;31.15;43.35;101020.03;144168;614;133012;-72
2021/08/12 00:59:10;;;;;;;;;23.25;20.75;;;;;31.05;43.29;101012.09;144162;610;131020;-72
2021/08/12 01:01:44;;;;;;;;;30.75;28.75;;;;;31.03;43.83;101011.44;144160;595;132008;-72
2021/08/12 01:04:18;;;;;;;;;23.75;23.25;;;;;30.92;43.46;101009.87;144144;563;131020;-68
2021/08/12 01:07:02;;;;;;;;;27.25;26.50;;;;;30.85;43.59;101017.84;144160;581;132011;-69
2021/08/12 01:10:08;;;;;;;;;27.75;26.25;;;;;31.35;42.91;101009.69;144163;577;131026;-70
2021/08/12 01:13:01;;;;;;;;;28.25;28.25;;;;;31.56;42.42;101009.97;144158;659;132010;-68
2021/08/12 01:15:49;;;;;;;;;28.75;26.25;;;;;31.73;42.38;101007.25;144164;609;132008;-69
2021/08/12 01:18:42;;;;;;;;;26.00;24.75;;;;;31.82;41.82;101019.78;144167;698;131018;-68
2021/08/12 01:21:36;;;;;;;;;26.75;26.50;;;;;31.93;41.92;101013.06;144154;592;132011;-69
2021/08/12 01:24:15;;;;;;;;;27.50;24.75;;;;;32.00;42.00;101015.94;144173;582;133012;-69
2021/08/12 01:26:55;;;;;;;;;26.75;25.00;;;;;31.90;41.91;101018.88;144158;590;131999;-67
2021/08/12 01:29:59;;;;;;;;;26.75;25.25;;;;;31.71;42.26;101012.84;144153;630;132012;-69
2021/08/12 01:33:11;;;;;;;;;27.00;25.75;;;;;31.34;42.86;101010.69;144140;577;132008;-71
2021/08/12 01:35:46;;;;;;;;;29.00;27.75;;;;;31.24;43.10;101020.91;144158;579;131018;-72
2021/08/12 01:38:32;;;;;;;;;26.25;25.75;;;;;30.79;43.88;101015.78;144152;581;132008;-67
2021/08/12 01:41:07;;;;;;;;;28.75;28.50;;;;;30.78;44.27;101016.78;144161;629;131016;-69
2021/08/12 01:43:41;;;;;;;;;28.50;27.50;;;;;31.17;43.24;101015.31;144163;695;132008;-71
2021/08/12 01:46:15;;;;;;;;;26.00;26.00;;;;;30.91;43.95;101013.59;144155;730;132012;-70
2021/08/12 01:48:50;;;;;;;;;28.75;27.25;;;;;31.22;43.22;100994.78;144154;703;132010;-69
2021/08/12 01:51:27;;;;;;;;;27.00;26.00;;;;;31.21;43.14;101006.66;144174;597;132010;-70
2021/08/12 01:54:02;;;;;;;;;27.00;27.00;;;;;31.42;42.84;101007.13;144156;632;132010;-71
2021/08/12 01:56:37;;;;;;;;;25.25;24.75;;;;;31.43;42.27;101006.97;144161;603;131018;-70
2021/08/12 01:59:12;;;;;;;;;32.50;29.50;;;;;31.32;42.95;101012.75;144148;571;132008;-70
2021/08/12 02:01:47;;;;;;;;;25.75;25.75;;;;;31.31;42.59;101008.34;144159;611;132026;-69
2021/08/12 02:04:22;;;;;;;;;29.50;25.50;;;;;31.34;43.11;101011.56;144158;630;132008;-72
2021/08/12 02:06:56;;;;;;;;;28.00;28.00;;;;;31.44;42.45;101010.50;144161;600;132024;-71
2021/08/12 02:09:30;;;;;;;;;30.00;26.75;;;;;31.53;42.40;101004.88;144161;596;132008;-69
2021/08/12 02:12:06;;;;;;;;;24.00;22.50;;;;;31.58;42.56;100995.38;144159;589;132010;-72
2021/08/12 02:14:41;;;;;;;;;29.75;28.25;;;;;31.65;42.41;100999.13;144163;571;131020;-71
2021/08/12 02:17:14;;;;;;;;;27.25;27.25;;;;;31.63;42.54;100995.72;144170;563;132012;-70
2021/08/12 02:19:48;;;;;;;;;27.50;27.50;;;;;31.66;42.29;100992.69;144159;565;132008;-68
2021/08/12 02:22:28;;;;;;;;;26.25;25.25;;;;;31.58;42.20;100988.09;144153;583;132012;-69
2021/08/12 02:25:16;;;;;;;;;27.50;26.25;;;;;31.50;42.29;100980.81;144146;624;131020;-69
2021/08/12 02:27:52;;;;;;;;;27.00;27.00;;;;;31.43;42.38;100982.53;144153;599;132012;-69
2021/08/12 02:30:26;;;;;;;;;28.25;26.75;;;;;31.41;42.83;100984.56;144158;597;131913;-68
2021/08/12 02:33:00;;;;;;;;;29.25;29.00;;;;;31.15;42.90;100980.25;144160;614;132010;-69
2021/08/12 02:35:36;;;;;;;;;26.00;24.00;;;;;31.02;42.95;100972.63;144160;567;132008;-68
2021/08/12 02:38:14;;;;;;;;;28.50;28.50;;;;;30.97;43.27;100983.09;144159;597;132010;-71
2021/08/12 02:40:50;;;;;;;;;27.75;23.75;;;;;30.80;43.69;100976.00;144164;563;132008;-71
2021/08/12 02:43:27;;;;;;;;;26.50;26.00;;;;;30.80;43.66;100982.25;144167;587;132013;-71
2021/08/12 02:46:05;;;;;;;;;24.25;24.25;;;;;30.66;44.38;100975.66;144159;607;131943;-71
2021/08/12 02:48:40;;;;;;;;;24.75;24.75;;;;;30.64;43.88;100972.25;144158;605;133008;-72
2021/08/12 02:51:16;;;;;;;;;23.50;22.50;;;;;30.66;44.00;100977.50;144142;578;132913;-71
2021/08/12 02:53:51;;;;;;;;;29.50;27.50;;;;;30.65;43.82;100978.53;144161;567;133012;-70
2021/08/12 02:56:27;;;;;;;;;30.25;28.75;;;;;30.53;44.12;100980.72;144164;598;131010;-71
2021/08/12 02:59:01;;;;;;;;;24.25;24.25;;;;;30.53;43.88;100983.44;144162;590;131018;-71
2021/08/12 03:01:39;;;;;;;;;27.00;27.00;;;;;30.54;44.01;100971.59;144162;586;132010;-71
2021/08/12 03:04:13;;;;;;;;;28.25;27.25;;;;;30.63;43.69;100985.97;144168;585;131013;-71
2021/08/12 03:06:49;;;;;;;;;25.25;25.25;;;;;30.64;43.75;100984.97;144164;571;131021;-73
2021/08/12 03:09:25;;;;;;;;;24.75;23.75;;;;;30.58;44.13;100988.31;144179;584;131012;-75
2021/08/12 03:12:01;;;;;;;;;26.75;26.25;;;;;30.47;44.60;100993.06;144162;579;132010;-73
2021/08/12 03:14:37;;;;;;;;;25.50;25.50;;;;;30.45;44.77;100997.78;144166;615;131016;-76
2021/08/12 03:17:12;;;;;;;;;27.00;27.00;;;;;30.48;44.50;101005.59;144149;616;131020;-70
2021/08/12 03:19:48;;;;;;;;;29.00;28.00;;;;;30.46;44.66;101010.34;144161;570;132010;-69
2021/08/12 03:22:24;;;;;;;;;27.00;27.00;;;;;30.44;44.50;101008.75;144161;614;131020;-71
2021/08/12 03:24:58;;;;;;;;;26.75;26.75;;;;;30.38;44.80;101015.69;144159;569;132012;-70
2021/08/12 03:27:32;;;;;;;;;30.25;26.75;;;;;30.33;44.87;101005.38;144158;583;132008;-72
2021/08/12 03:30:07;;;;;;;;;29.50;29.25;;;;;30.33;44.92;101002.66;144164;634;132012;-73
2021/08/12 03:32:40;;;;;;;;;25.50;25.50;;;;;30.31;44.79;101004.69;144152;573;132010;-72
2021/08/12 03:35:15;;;;;;;;;26.50;25.75;;;;;30.31;44.43;101009.25;144172;588;133008;-73
2021/08/12 03:37:49;;;;;;;;;29.75;27.75;;;;;30.17;44.37;101000.75;144154;629;132008;-74
2021/08/12 03:40:23;;;;;;;;;28.00;28.00;;;;;30.23;44.42;101001.94;144158;582;133011;-78
2021/08/12 03:42:56;;;;;;;;;21.75;21.75;;;;;30.11;44.41;101006.81;144142;582;132913;-77
2021/08/12 03:45:30;;;;;;;;;23.25;22.50;;;;;30.15;43.81;101010.88;144160;580;132008;-72
2021/08/12 03:48:04;;;;;;;;;24.00;23.75;;;;;30.20;44.26;101010.41;144162;634;131020;-76
2021/08/12 03:50:38;;;;;;;;;22.25;22.00;;;;;30.24;44.13;101022.59;144168;620;131017;-77
2021/08/12 03:53:12;;;;;;;;;25.25;23.75;;;;;30.26;43.58;101027.84;144160;564;131020;-79
2021/08/12 03:55:46;;;;;;;;;20.00;20.00;;;;;30.27;43.86;101024.97;144160;580;132012;-77
2021/08/12 03:58:20;;;;;;;;;21.50;20.25;;;;;30.37;43.78;101024.81;144160;590;132008;-75
2021/08/12 04:00:54;;;;;;;;;21.50;21.25;;;;;30.57;43.48;101030.00;144178;627;131016;-73
2021/08/12 04:03:28;;;;;;;;;21.50;21.25;;;;;30.58;43.39;101039.81;144161;602;132008;-72
2021/08/12 04:06:02;;;;;;;;;20.25;19.25;;;;;30.46;42.89;101050.13;144162;607;131019;-75
2021/08/12 04:08:36;;;;;;;;;21.25;19.00;;;;;30.39;43.09;101056.16;144146;576;132020;-71
2021/08/12 04:11:10;;;;;;;;;16.75;16.25;;;;;30.43;43.27;101062.09;144158;566;132012;-72
2021/08/12 04:13:44;;;;;;;;;21.00;21.00;;;;;30.36;42.98;101058.38;144158;605;132008;-73
2021/08/12 04:16:20;;;;;;;;;17.50;16.50;;;;;30.36;43.21;101061.06;144155;579;132018;-71
2021/08/12 04:18:54;;;;;;;;;21.75;20.50;;;;;30.40;43.02;101062.44;144154;587;132010;-73
2021/08/12 04:21:28;;;;;;;;;19.00;19.00;;;;;30.31;42.89;101066.12;144162;617;132010;-72
2021/08/12 04:24:02;;;;;;;;;17.75;17.75;;;;;30.32;43.02;101070.50;144157;609;132008;-72
2021/08/12 04:26:36;;;;;;;;;17.00;16.50;;;;;30.41;43.16;101066.81;144167;576;132008;-72
2021/08/12 04:29:10;;;;;;;;;19.00;19.00;;;;;30.56;42.78;101061.66;144156;569;131914;-73
2021/08/12 04:31:44;;;;;;;;;19.25;19.25;;;;;30.55;42.56;101066.22;144161;612;132010;-75
2021/08/12 04:34:18;;;;;;;;;17.75;17.75;;;;;30.58;42.57;101066.88;144145;585;132026;-73
2021/08/12 04:36:52;;;;;;;;;22.25;19.25;;;;;30.51;42.48;101064.00;144154;571;132012;-72
2021/08/12 04:39:26;;;;;;;;;21.75;20.25;;;;;30.49;42.53;101057.91;144152;581;132010;-72
2021/08/12 04:42:00;;;;;;;;;18.00;16.75;;;;;30.61;42.34;101058.47;144154;582;132013;-70
2021/08/12 04:44:34;;;;;;;;;20.00;20.00;;;;;30.67;42.45;101071.31;144156;597;132008;-69
2021/08/12 04:47:08;;;;;;;;;22.50;21.00;;;;;30.84;42.37;101069.50;144165;577;132010;-71
2021/08/12 04:49:42;;;;;;;;;19.50;19.25;;;;;31.02;42.30;101072.06;144159;566;132009;-71
2021/08/12 04:52:16;;;;;;;;;20.75;20.75;;;;;31.18;41.83;101074.78;144177;580;132010;-71
2021/08/12 04:54:49;;;;;;;;;21.50;18.75;;;;;31.35;42.00;101072.91;144158;576;131021;-71
2021/08/12 04:57:23;;;;;;;;;22.75;22.75;;;;;31.54;41.86;101063.56;144162;625;132010;-71
2021/08/12 04:59:57;;;;;;;;;23.25;22.00;;;;;31.71;41.53;101071.69;144146;591;132008;-72
2021/08/12 05:02:31;;;;;;;;;25.00;23.00;;;;;31.86;41.47;101072.69;144164;605;132012;-72
2021/08/12 05:05:05;;;;;;;;;28.75;27.75;;;;;32.02;41.37;101063.63;144160;590;132008;-73
2021/08/12 05:07:39;;;;;;;;;29.50;26.50;;;;;32.20;41.25;101074.25;144158;592;133008;-73
2021/08/12 05:10:14;;;;;;;;;25.50;24.25;;;;;32.23;41.08;101086.62;144165;618;131020;-71
2021/08/12 05:12:48;;;;;;;;;27.25;27.25;;;;;32.29;40.99;101090.50;144159;587;133012;-71
2021/08/12 05:15:22;;;;;;;;;26.00;25.75;;;;;32.04;41.46;101101.44;144155;596;132010;-71
2021/08/12 05:17:56;;;;;;;;;30.75;27.75;;;;;32.03;41.05;101097.91;144174;658;132010;-71
2021/08/12 05:20:29;;;;;;;;;26.50;26.50;;;;;31.96;41.27;101096.91;144158;636;132008;-71
2021/08/12 05:23:04;;;;;;;;;26.00;25.00;;;;;31.91;40.92;101098.47;144156;615;132012;-68
2021/08/12 05:25:43;;;;;;;;;27.00;26.50;;;;;31.95;41.28;101099.81;144142;606;133009;-70
2021/08/12 05:28:17;;;;;;;;;23.50;22.75;;;;;32.16;40.90;101101.94;144164;665;132012;-70
2021/08/12 05:30:51;;;;;;;;;25.75;25.75;;;;;32.39;41.20;101104.75;144159;584;132000;-69
2021/08/12 05:33:25;;;;;;;;;23.00;23.00;;;;;32.14;41.34;101109.41;144163;573;132008;-69
2021/08/12 05:35:59;;;;;;;;;28.00;27.00;;;;;32.51;40.05;101114.19;144158;614;132008;-68
2021/08/12 05:38:33;;;;;;;;;26.50;26.50;;;;;32.63;39.83;101117.34;144163;577;132010;-69
2021/08/12 05:41:07;;;;;;;;;34.00;28.25;;;;;32.77;39.65;101121.22;144157;674;132942;-68
2021/08/12 05:43:41;;;;;;;;;25.75;25.00;;;;;32.80;39.98;101126.28;144172;618;133008;-68
2021/08/12 05:46:15;;;;;;;;;28.25;27.50;;;;;32.89;39.74;101127.91;144157;626;132010;-70
2021/08/12 05:48:48;;;;;;;;;24.50;22.00;;;;;32.84;39.84;101121.34;144165;570;131017;-69
2021/08/12 05:51:22;;;;;;;;;30.25;29.00;;;;;32.92;39.77;101117.69;144143;634;132008;-68
2021/08/12 05:53:56;;;;;;;;;31.75;29.75;;;;;32.99;39.78;101122.25;144162;634;131018;-68
2021/08/12 05:56:30;;;;;;;;;24.00;24.00;;;;;32.94;39.15;101115.66;144164;576;131021;-70
2021/08/12 05:59:04;;;;;;;;;30.50;28.00;;;;;32.97;39.71;101120.72;144158;611;132010;-70
2021/08/12 06:01:38;;;;;;;;;30.75;29.25;;;;;32.77;40.36;101123.09;144156;569;132010;-70
2021/08/12 06:04:12;;;;;;;;;28.75;27.00;;;;;33.16;39.55;101135.72;144160;569;132017;-70
2021/08/12 06:06:46;;;;;;;;;23.25;22.25;;;;;33.31;39.39;101127.63;144169;624;131020;-71
2021/08/12 06:09:20;;;;;;;;;27.25;27.25;;;;;33.62;38.43;101129.41;144165;579;132013;-70
2021/08/12 06:11:54;;;;;;;;;25.50;25.25;;;;;33.47;38.57;101138.37;144162;622;131021;-70
2021/08/12 06:14:28;;;;;;;;;26.00;26.00;;;;;33.47;38.72;101140.25;144165;633;132008;-69
2021/08/12 06:17:02;;;;;;;;;29.00;28.00;;;;;33.80;38.06;101132.63;144148;578;131010;-69
2021/08/12 06:19:36;;;;;;;;;30.00;28.75;;;;;33.64;38.78;101138.22;144159;575;131017;-68
2021/08/12 06:22:10;;;;;;;;;29.75;28.00;;;;;34.17;37.85;101139.03;144161;577;132008;-69
2021/08/12 06:24:44;;;;;;;;;31.00;29.00;;;;;34.33;37.66;101142.63;144163;593;132010;-69
2021/08/12 06:27:18;;;;;;;;;27.25;26.25;;;;;34.61;36.83;101140.03;144157;602;132008;-69
2021/08/12 06:29:55;;;;;;;;;27.75;27.00;;;;;34.69;36.42;101147.25;144162;748;132010;-70
2021/08/12 06:32:29;;;;;;;;;25.25;25.25;;;;;34.78;35.95;101151.56;144159;630;131021;-71
2021/08/12 06:35:03;;;;;;;;;29.00;27.00;;;;;34.86;35.89;101164.28;144173;570;131016;-68
2021/08/12 06:37:51;;;;;;;;;27.75;25.50;;;;;34.86;36.12;101159.66;144163;563;131914;-70
2021/08/12 06:40:27;;;;;;;;;28.25;26.00;;;;;34.50;37.01;101155.03;144165;570;132008;-69
2021/08/12 06:43:01;;;;;;;;;26.25;24.75;;;;;34.33;36.91;101148.91;144148;703;132008;-70
2021/08/12 06:45:35;;;;;;;;;29.25;27.25;;;;;34.25;37.47;101149.81;144163;701;132030;-71
2021/08/12 06:48:10;;;;;;;;;23.75;23.75;;;;;34.84;36.52;101145.34;144161;569;132008;-69
2021/08/12 06:50:44;;;;;;;;;25.25;24.25;;;;;34.73;35.67;101154.00;144165;696;132008;-71
2021/08/12 06:53:18;;;;;;;;;25.00;23.00;;;;;35.22;35.30;101161.47;144158;569;131914;-69
2021/08/12 06:55:52;;;;;;;;;25.75;25.75;;;;;35.46;34.18;101162.16;144162;709;131019;-71
2021/08/12 06:58:26;;;;;;;;;29.50;27.50;;;;;35.55;34.73;101163.69;144165;585;131020;-69
2021/08/12 07:00:59;;;;;;;;;27.25;26.00;;;;;35.66;33.54;101166.91;144175;631;131038;-68
2021/08/12 07:03:33;;;;;;;;;24.00;23.25;;;;;35.53;33.80;101171.25;144161;589;132008;-67
2021/08/12 07:06:07;;;;;;;;;28.00;24.00;;;;;35.30;34.07;101176.03;144156;667;132010;-67
2021/08/12 07:08:42;;;;;;;;;24.00;24.00;;;;;35.20;34.83;101171.75;144145;641;132008;-68
2021/08/12 07:11:16;;;;;;;;;24.25;23.50;;;;;35.19;35.20;101171.94;144157;580;132012;-66
2021/08/12 07:13:50;;;;;;;;;22.00;21.00;;;;;35.22;35.59;101182.47;144164;605;132008;-67
2021/08/12 07:16:24;;;;;;;;;26.75;26.50;;;;;34.43;36.46;101181.31;144162;599;132010;-67
2021/08/12 07:18:59;;;;;;;;;26.25;25.50;;;;;35.28;35.58;101192.59;144159;570;133008;-70
2021/08/12 07:21:34;;;;;;;;;28.00;24.50;;;;;34.32;36.81;101198.16;144159;636;132010;-67
2021/08/12 07:24:09;;;;;;;;;25.50;25.00;;;;;34.27;37.25;101189.66;144154;616;132010;-68
2021/08/12 07:26:44;;;;;;;;;26.75;26.50;;;;;33.75;37.85;101194.97;144177;581;131016;-68
2021/08/12 07:29:19;;;;;;;;;26.50;25.50;;;;;34.32;37.37;101204.44;144162;563;131915;-69
2021/08/12 07:31:54;;;;;;;;;24.00;24.00;;;;;35.55;33.83;101196.44;144159;615;132012;-70
2021/08/12 07:34:30;;;;;;;;;21.75;21.25;;;;;34.53;36.17;101206.41;144147;570;131915;-69
2021/08/12 07:37:04;;;;;;;;;26.00;24.00;;;;;33.87;36.76;101201.69;144163;609;132010;-68
2021/08/12 07:39:38;;;;;;;;;26.00;25.25;;;;;34.66;35.77;101208.47;144165;625;131915;-69
2021/08/12 07:42:18;;;;;;;;;22.00;21.00;;;;;34.85;36.01;101206.22;144162;571;133008;-67
2021/08/12 07:44:52;;;;;;;;;23.25;23.25;;;;;34.82;36.23;101212.06;144160;617;132008;-67
2021/08/12 07:47:26;;;;;;;;;25.00;24.50;;;;;34.86;36.13;101210.63;144159;564;131017;-67
2021/08/12 07:50:00;;;;;;;;;28.00;27.25;;;;;33.81;37.15;101221.47;144155;588;132008;-69
2021/08/12 07:52:34;;;;;;;;;26.50;25.75;;;;;35.44;35.04;101220.72;144174;586;132012;-69
2021/08/12 07:55:09;;;;;;;;;27.75;25.25;;;;;35.60;34.30;101228.62;144160;624;132008;-69
2021/08/12 07:57:43;;;;;;;;;23.00;23.00;;;;;35.57;34.68;101229.84;144162;614;132012;-67
2021/08/12 08:00:19;;;;;;;;;26.50;24.75;;;;;36.03;32.89;101236.78;144146;703;131914;-69
2021/08/12 08:02:53;;;;;;;;;24.75;23.75;;;;;34.71;35.84;101246.06;144161;593;132013;-69
2021/08/12 08:05:29;;;;;;;;;29.25;27.75;;;;;35.20;35.20;101259.06;144156;597;132008;-69
2021/08/12 08:08:03;;;;;;;;;26.50;25.50;;;;;35.02;35.92;101259.50;144158;743;132019;-70
2021/08/12 08:10:37;;;;;;;;;30.50;27.50;;;;;34.69;36.70;101254.44;144163;644;131021;-71
2021/08/12 08:13:11;;;;;;;;;34.00;30.00;;;;;34.06;38.22;101265.66;144163;600;132010;-69
2021/08/12 08:15:45;;;;;;;;;26.50;25.50;;;;;33.38;40.49;101272.78;144161;606;131915;-69
2021/08/12 08:18:19;;;;;;;;;33.00;30.00;;;;;34.64;38.58;101275.09;144173;592;132012;-69
2021/08/12 08:20:53;;;;;;;;;30.00;28.00;;;;;34.87;38.21;101278.63;144167;619;132010;-69
2021/08/12 08:23:27;;;;;;;;;31.25;28.50;;;;;34.89;38.10;101262.06;144165;574;132008;-68
2021/08/12 08:26:01;;;;;;;;;31.75;29.50;;;;;35.20;38.41;101259.06;144144;628;132008;-69
2021/08/12 08:28:35;;;;;;;;;31.25;29.75;;;;;35.03;38.10;101261.16;144165;574;133008;-69
2021/08/12 08:31:09;;;;;;;;;29.00;28.00;;;;;34.84;38.12;101264.50;144164;593;132008;-67
2021/08/12 08:33:43;;;;;;;;;28.25;25.25;;;;;33.95;39.91;101271.53;144156;569;132012;-67
2021/08/12 08:36:17;;;;;;;;;22.25;22.25;;;;;34.71;39.00;101265.16;144157;576;132008;-67
2021/08/12 08:38:51;;;;;;;;;28.25;24.75;;;;;33.87;39.72;101264.31;144162;623;131019;-67
2021/08/12 08:41:26;;;;;;;;;24.00;24.00;;;;;33.43;40.66;101269.56;144164;579;131020;-68
2021/08/12 08:44:00;;;;;;;;;29.25;26.75;;;;;32.85;42.45;101269.84;144176;604;132008;-68
2021/08/12 08:46:34;;;;;;;;;26.50;26.50;;;;;33.81;40.44;101262.31;144163;579;131021;-67
2021/08/12 08:49:11;;;;;;;;;28.25;25.25;;;;;33.70;40.39;101262.72;144154;686;133008;-67
2021/08/12 08:51:45;;;;;;;;;25.00;23.75;;;;;34.74;38.62;101259.31;144143;733;132026;-68
2021/08/12 08:54:21;;;;;;;;;25.50;23.75;;;;;34.85;37.75;101258.84;144162;579;131028;-68
2021/08/12 08:56:56;;;;;;;;;25.00;23.25;;;;;35.40;36.43;101259.31;144158;565;132008;-67
2021/08/12 08:59:31;;;;;;;;;20.50;20.50;;;;;36.11;32.75;101248.59;144159;594;132011;-68
2021/08/12 09:02:09;;;;;;;;;27.50;27.00;;;;;34.83;35.52;101247.31;144162;589;132008;-68
2021/08/12 09:04:43;;;;;;;;;23.50;23.50;;;;;35.14;34.41;101259.81;144164;704;131016;-67
2021/08/12 09:07:17;;;;;;;;;23.25;22.75;;;;;34.81;34.81;101256.69;144156;581;132010;-68
2021/08/12 09:09:51;;;;;;;;;22.75;22.75;;;;;34.64;35.46;101253.28;144169;563;132012;-68
2021/08/12 09:12:25;;;;;;;;;24.50;24.25;;;;;35.67;33.60;101264.19;144158;587;132010;-67
2021/08/12 09:15:06;;;;;;;;;23.25;22.50;;;;;36.33;32.39;101252.12;144163;564;131018;-67
2021/08/12 09:17:40;;;;;;;;;23.00;23.00;;;;;34.95;33.03;101255.81;144140;572;132008;-67
2021/08/12 09:20:28;;;;;;;;;20.50;20.50;;;;;35.07;33.55;101254.28;144161;616;132010;-67
2021/08/12 09:23:24;;;;;;;;;21.25;21.25;;;;;34.49;35.25;101250.56;144166;575;131915;-67
2021/08/12 09:25:59;;;;;;;;;24.50;24.25;;;;;34.23;35.21;101246.44;144162;584;131016;-70
2021/08/12 09:28:37;;;;;;;;;26.50;24.75;;;;;35.79;32.57;101240.75;144160;586;132008;-68
2021/08/12 09:31:13;;;;;;;;;19.75;19.75;;;;;35.46;33.46;101241.31;144163;619;131017;-68
2021/08/12 09:33:55;;;;;;;;;23.00;23.00;;;;;35.17;34.78;101240.34;144153;587;132010;-69
2021/08/12 09:36:39;;;;;;;;;23.00;21.75;;;;;35.35;34.14;101239.94;144169;615;132012;-69
2021/08/12 09:39:16;;;;;;;;;25.00;25.00;;;;;36.00;33.39;101230.88;144163;622;131915;-69
2021/08/12 09:42:01;;;;;;;;;23.50;23.00;;;;;36.88;31.90;101233.91;144156;582;132012;-68
2021/08/12 09:44:51;;;;;;;;;22.00;21.25;;;;;35.85;32.89;101228.22;144142;565;132010;-67
2021/08/12 09:47:33;;;;;;;;;22.00;22.00;;;;;34.90;34.43;101226.41;144156;600;132010;-68
2021/08/12 09:50:08;;;;;;;;;23.00;23.00;;;;;34.92;34.40;101228.94;144157;706;132008;-69
2021/08/12 09:52:42;;;;;;;;;25.75;25.00;;;;;35.39;33.72;101227.59;144162;618;131039;-69
2021/08/12 09:55:22;;;;;;;;;23.25;22.00;;;;;35.05;34.05;101223.63;144160;571;132008;-68
2021/08/12 09:58:19;;;;;;;;;20.00;20.00;;;;;36.00;32.41;101226.22;144156;582;132010;-69
2021/08/12 10:00:54;;;;;;;;;17.75;17.75;;;;;35.14;33.19;101224.34;144162;699;132015;-69
2021/08/12 10:03:32;;;;;;;;;24.50;23.25;;;;;35.57;32.67;101232.59;144172;586;132025;-69
2021/08/12 10:06:08;;;;;;;;;21.50;21.50;;;;;34.52;34.65;101222.97;144166;571;131915;-69
2021/08/12 10:08:43;;;;;;;;;22.00;22.00;;;;;34.19;34.58;101224.16;144159;604;132019;-69
2021/08/12 10:11:30;;;;;;;;;22.00;21.50;;;;;35.44;33.36;101229.72;144145;755;132008;-69
2021/08/12 10:14:09;;;;;;;;;22.50;21.50;;;;;35.70;30.55;101225.56;144162;601;133012;-69
2021/08/12 10:16:43;;;;;;;;;19.75;19.25;;;;;36.16;31.21;101224.25;144161;624;132008;-69
2021/08/12 10:19:18;;;;;;;;;22.00;22.00;;;;;36.32;32.25;101225.84;144161;582;132012;-69
2021/08/12 10:21:53;;;;;;;;;20.00;18.50;;;;;35.89;32.59;101230.34;144158;627;132008;-69
2021/08/12 10:24:32;;;;;;;;;20.25;20.25;;;;;35.58;33.35;101226.09;144155;572;132012;-68
2021/08/12 10:27:06;;;;;;;;;20.25;20.25;;;;;35.46;32.23;101235.00;144160;610;131020;-68
2021/08/12 10:29:40;;;;;;;;;20.25;20.25;;;;;34.98;32.50;101227.31;144171;611;132011;-68
2021/08/12 10:32:19;;;;;;;;;22.75;21.25;;;;;34.66;35.15;101230.25;144161;581;131915;-67
2021/08/12 10:34:53;;;;;;;;;19.50;19.50;;;;;35.90;32.09;101221.13;144153;602;132012;-68
2021/08/12 10:37:28;;;;;;;;;24.00;22.00;;;;;36.78;30.67;101219.75;144148;573;131021;-67
2021/08/12 10:40:02;;;;;;;;;17.25;15.25;;;;;37.19;29.72;101220.72;144155;602;132010;-67
2021/08/12 10:42:37;;;;;;;;;23.50;21.75;;;;;37.47;29.18;101217.00;144158;712;131915;-67
2021/08/12 10:45:13;;;;;;;;;17.50;17.50;;;;;36.53;30.28;101220.28;144164;602;132010;-67
2021/08/12 10:47:55;;;;;;;;;21.00;21.00;;;;;36.40;31.38;101218.34;144155;600;132008;-67
2021/08/12 10:50:35;;;;;;;;;18.50;18.50;;;;;37.11;29.68;101213.56;144159;567;132012;-68
2021/08/12 10:53:19;;;;;;;;;18.00;18.00;;;;;36.90;29.86;101209.94;144161;598;131915;-68
2021/08/12 10:56:10;;;;;;;;;20.00;20.00;;;;;36.19;31.01;101208.28;144173;594;131027;-67
2021/08/12 10:58:47;;;;;;;;;13.50;13.00;;;;;36.91;28.80;101208.88;144163;622;131915;-70
2021/08/12 11:01:41;;;;;;;;;17.75;17.00;;;;;36.33;30.09;101208.41;144156;563;133012;-68
2021/08/12 11:04:16;;;;;;;;;17.75;17.50;;;;;36.84;29.94;101207.16;144142;573;132010;-67
2021/08/12 11:06:51;;;;;;;;;17.50;16.50;;;;;35.93;30.47;101195.31;144163;570;131019;-67
2021/08/12 11:09:25;;;;;;;;;17.00;17.00;;;;;36.22;29.90;101188.75;144166;569;132019;-67
2021/08/12 11:12:01;;;;;;;;;18.25;18.00;;;;;35.80;30.63;101192.44;144155;607;132013;-67
2021/08/12 11:14:51;;;;;;;;;18.00;17.25;;;;;37.45;27.71;101184.38;144157;637;132008;-67
2021/08/12 11:17:26;;;;;;;;;16.75;16.75;;;;;37.41;27.14;101186.69;144164;582;131016;-67
2021/08/12 11:20:00;;;;;;;;;17.75;14.75;;;;;37.30;27.36;101200.16;144164;645;132008;-67
2021/08/12 11:22:35;;;;;;;;;19.25;18.00;;;;;36.88;28.36;101195.63;144179;604;132012;-67
2021/08/12 11:25:11;;;;;;;;;16.00;16.00;;;;;37.30;27.56;101194.69;144159;583;132008;-68
2021/08/12 11:27:46;;;;;;;;;14.75;14.75;;;;;37.20;27.32;101192.31;144163;566;132008;-67
2021/08/12 11:30:42;;;;;;;;;21.50;19.75;;;;;36.87;28.44;101198.56;144149;564;132008;-67
2021/08/12 11:33:29;;;;;;;;;16.75;16.75;;;;;37.00;28.12;101195.00;144160;573;132010;-66
2021/08/12 11:36:37;;;;;;;;;15.50;15.50;;;;;36.15;31.18;101192.50;144161;608;131021;-68
2021/08/12 11:39:12;;;;;;;;;22.75;18.00;;;;;36.62;30.80;101190.88;144161;613;132010;-67
2021/08/12 11:41:48;;;;;;;;;16.00;15.25;;;;;36.39;30.43;101191.19;144166;650;131914;-66